Ancona, IL

8:59 AM CDT on July 23, 2016 (GMT -0500)
Eplin/Connell Farm 2 miles NW of | | Change Station
Active Advisory: Excessive Heat Warning

Elev 626 ft 41.17 °N, 88.85 °W | Updated 4 minutes ago

Clear
Clear
85.2 °F
Feels Like 99 °F
N
0.0
Wind Variable Wind from SW
Gusts 3.0 mph

Today
High -- | Low -- °F
--% Chance of Precip.
Yesterday
High -- | Low -- °F
Precip. -- in
Pressure 30.01 in
Visibility 10.0 miles
Clouds Clear
Heat Index 99 °F
Dew Point 79 °F
Humidity 83%
Rainfall 0.00 in
Snow Depth Not available.
5:43 AM 8:20 PM
Waning Gibbous, 85% visible
METAR KPNT 231335Z AUTO 00000KT 10SM CLR 28/26 A3001 RMK AO2 T02750257
Pressure 30.01 in
Visibility 10.0 miles
Clouds Clear
Heat Index 99 °F
Dew Point 79 °F
Humidity 83%
Rainfall 0.00 in
Snow Depth Not available.
5:43 AM 8:20 PM
Waning Gibbous, 85% visible
METAR KPNT 231335Z AUTO 00000KT 10SM CLR 28/26 A3001 RMK AO2 T02750257

10-Day Weather Forecast

Almanac

Astronomy

Jul. 23, 2016 Rise Set
Actual Time
Civil Twilight
Nautical Twilight
Astronomical Twilight
Moon
Length of Visible Light
Length of Day
Tomorrow will be .
, % of the Moon is Illuminated

Today's Extremes

State Highs State Lows

Community

WunderPhotos

Upload Photos

1,926,818 photos uploaded!

WunderBlog® & News

Nearby

Air Quality

  Air Quality AQ Index Pollutant
Not available.

Snow Depth

Station Depth Elevation

Earthquake Activity

City Distance Mag. Time & Date
Minimum magnitude displayed is 2.5.

Coastal Water Temperatures

Place Temperature

Stations

Nearby Weather Stations

Station Location Temp. Windchill Dew Point Humidity Wind Precip. Elev Updated Type
                   

Watches & Warnings

Excessive Heat Warning
Issued: 3:13 AM CDT Jul. 23, 2016 – National Weather Service

... Excessive heat warning remains in effect until 7 PM CDT this
evening...

* temperatures... highs in the lower 90s today.

* Maximum heat index values... 102 to 108 degrees this afternoon.

* Impacts... temperatures and moisture this high could lead to
heat related illnesses with prolonged exposure. The elderly...
small children and pets are especially susceptible. Plan
ahead. Have a cool place to shelter from the heat. Avoid
outdoor activity during the afternoon.

Precautionary/preparedness actions...

Take extra precautions... if you work or spend time outside. When
possible... reschedule strenuous activities to early morning or
evening. Know the signs and symptoms of heat exhaustion and heat
stroke. Wear light weight and loose fitting clothing when
possible and drink plenty of water.

Heat stroke is an emergency... call 9 1 1.

Young children and pets should never be left unattended in
vehicles under any circumstances. This is especially true during
warm or hot weather when car interiors can reach lethal
temperatures in a matter of minutes.